Time;durP1;ratioP1;P1;durP2;ratioP2;P2;SDS_P1;SDS_P2;PMS_P1;PMS_P2;Temp;Humidity;BMP_temperature;BMP_pressure;BME280_temperature;BME280_humidity;BME280_pressure;Samples;Min_cycle;Max_cycle;Signal;HPM_P1;HPM_P2
2023/04/17 00:01:25;;;;;;;32.80;21.23;;;;;;;;;;5025820;28;20096;-63
2023/04/17 00:03:51;;;;;;;37.80;21.23;;;;;;;;;;5018156;28;20041;-62
2023/04/17 00:06:18;;;;;;;36.10;21.40;;;;;;;;;;5025080;28;20030;-61
2023/04/17 00:08:44;;;;;;;35.33;21.33;;;;;;;;;;5021961;28;20060;-64
2023/04/17 00:11:09;;;;;;;36.20;21.40;;;;;;;;;;5026859;28;20443;-64
2023/04/17 00:13:35;;;;;;;36.65;21.45;;;;;;;;;;5025387;28;20125;-63
2023/04/17 00:16:01;;;;;;;35.70;21.80;;;;;;;;;;5012298;28;20400;-63
2023/04/17 00:18:26;;;;;;;29.70;20.48;;;;;;;;;;5017737;28;20042;-63
2023/04/17 00:20:52;;;;;;;33.20;20.58;;;;;;;;;;5022382;28;20040;-63
2023/04/17 00:23:17;;;;;;;32.83;21.02;;;;;;;;;;5028447;28;20136;-63
2023/04/17 00:25:43;;;;;;;34.40;20.52;;;;;;;;;;5030867;28;20033;-63
2023/04/17 00:28:08;;;;;;;33.53;20.13;;;;;;;;;;5010527;28;20026;-63
2023/04/17 00:30:34;;;;;;;34.13;20.33;;;;;;;;;;5021162;28;20041;-63
2023/04/17 00:32:59;;;;;;;32.70;20.15;;;;;;;;;;5030044;28;20064;-63
2023/04/17 00:35:24;;;;;;;33.00;20.55;;;;;;;;;;5025983;28;20045;-63
2023/04/17 00:37:50;;;;;;;30.10;19.83;;;;;;;;;;5026301;28;20494;-63
2023/04/17 00:40:15;;;;;;;28.90;19.92;;;;;;;;;;5016181;28;20512;-63
2023/04/17 00:42:41;;;;;;;35.67;21.00;;;;;;;;;;5025905;28;20040;-63
2023/04/17 00:45:09;;;;;;;32.58;19.48;;;;;;;;;;5043894;28;20538;-62
2023/04/17 00:47:35;;;;;;;29.88;20.08;;;;;;;;;;5031039;28;20035;-63
2023/04/17 00:50:01;;;;;;;31.63;20.45;;;;;;;;;;5023144;28;20029;-63
2023/04/17 00:52:31;;;;;;;31.92;19.70;;;;;;;;;;5029914;28;20037;-62
2023/04/17 00:54:58;;;;;;;31.67;20.10;;;;;;;;;;5011217;28;20104;-62
2023/04/17 00:57:24;;;;;;;33.05;20.55;;;;;;;;;;5026764;28;20026;-62
2023/04/17 00:59:49;;;;;;;32.03;20.55;;;;;;;;;;5010716;28;20033;-62
2023/04/17 01:02:16;;;;;;;29.70;19.63;;;;;;;;;;5018008;28;20432;-63
2023/04/17 01:04:41;;;;;;;31.52;19.58;;;;;;;;;;5022640;28;20416;-63
2023/04/17 01:07:07;;;;;;;33.50;20.45;;;;;;;;;;5010396;28;20068;-61
2023/04/17 01:09:32;;;;;;;31.17;19.92;;;;;;;;;;5031089;28;20025;-63
2023/04/17 01:12:21;;;;;;;32.10;19.98;;;;;;;;;;5023517;28;20531;-63
2023/04/17 01:14:54;;;;;;;30.42;20.08;;;;;;;;;;5015128;28;20044;-62
2023/04/17 01:17:21;;;;;;;32.78;20.20;;;;;;;;;;5029599;28;20037;-63
2023/04/17 01:19:48;;;;;;;35.88;21.13;;;;;;;;;;5030544;28;20034;-62
2023/04/17 01:22:17;;;;;;;31.58;20.75;;;;;;;;;;5013501;28;20145;-63
2023/04/17 01:24:42;;;;;;;32.40;20.52;;;;;;;;;;5030354;28;20044;-63
2023/04/17 01:27:08;;;;;;;33.45;21.00;;;;;;;;;;5020393;28;20391;-63
2023/04/17 01:29:34;;;;;;;33.13;20.67;;;;;;;;;;5021171;28;20036;-63
2023/04/17 01:31:59;;;;;;;29.23;20.55;;;;;;;;;;5027482;28;20099;-64
2023/04/17 01:34:25;;;;;;;34.08;20.45;;;;;;;;;;5027271;28;20033;-63
2023/04/17 01:36:51;;;;;;;32.50;20.70;;;;;;;;;;5015076;28;20037;-63
2023/04/17 01:39:17;;;;;;;33.60;20.92;;;;;;;;;;5023741;28;20368;-62
2023/04/17 01:41:42;;;;;;;31.85;20.42;;;;;;;;;;5020863;28;20034;-63
2023/04/17 01:44:08;;;;;;;33.25;20.45;;;;;;;;;;5026528;28;20303;-63
2023/04/17 01:46:33;;;;;;;31.30;20.17;;;;;;;;;;5029942;28;20120;-63
2023/04/17 01:48:58;;;;;;;29.08;19.38;;;;;;;;;;5020030;28;20026;-63
2023/04/17 01:51:24;;;;;;;29.00;19.55;;;;;;;;;;5031301;28;20453;-63
2023/04/17 01:53:50;;;;;;;30.20;19.52;;;;;;;;;;5014264;28;20033;-62
2023/04/17 01:56:15;;;;;;;29.42;19.40;;;;;;;;;;5013848;28;20083;-63
2023/04/17 01:58:41;;;;;;;28.52;19.25;;;;;;;;;;5022061;28;20113;-63
2023/04/17 02:01:07;;;;;;;29.50;18.70;;;;;;;;;;5021228;28;20384;-63
2023/04/17 02:03:32;;;;;;;29.52;19.55;;;;;;;;;;5018396;28;20026;-63
2023/04/17 02:05:58;;;;;;;30.27;18.63;;;;;;;;;;5015219;28;20029;-63
2023/04/17 02:08:23;;;;;;;28.50;18.45;;;;;;;;;;5029166;28;20029;-63
2023/04/17 02:10:49;;;;;;;27.35;18.42;;;;;;;;;;5030293;28;20447;-63
2023/04/17 02:13:14;;;;;;;30.85;18.45;;;;;;;;;;5027915;28;20487;-63
2023/04/17 02:15:39;;;;;;;30.75;19.17;;;;;;;;;;5033444;28;20033;-63
2023/04/17 02:18:05;;;;;;;28.52;18.20;;;;;;;;;;5023716;28;20075;-63
2023/04/17 02:20:32;;;;;;;29.55;19.02;;;;;;;;;;5032578;28;20037;-63
2023/04/17 02:22:59;;;;;;;29.25;18.95;;;;;;;;;;5031455;28;20474;-63
2023/04/17 02:25:25;;;;;;;29.92;18.58;;;;;;;;;;5031418;28;20033;-63
2023/04/17 02:27:50;;;;;;;29.77;18.92;;;;;;;;;;5020170;28;20052;-62
2023/04/17 02:30:15;;;;;;;30.35;18.63;;;;;;;;;;5013066;28;20480;-62
2023/04/17 02:32:41;;;;;;;29.67;18.63;;;;;;;;;;5012515;28;20038;-63
2023/04/17 02:35:07;;;;;;;29.65;18.63;;;;;;;;;;5013037;28;20044;-63
2023/04/17 02:37:32;;;;;;;31.38;19.50;;;;;;;;;;5028803;28;20107;-63
2023/04/17 02:39:57;;;;;;;30.95;19.25;;;;;;;;;;5013483;28;20049;-63
2023/04/17 02:42:23;;;;;;;27.42;18.70;;;;;;;;;;5013517;28;20476;-62
2023/04/17 02:44:48;;;;;;;30.23;19.20;;;;;;;;;;5022164;28;20116;-63
2023/04/17 02:47:14;;;;;;;30.75;19.88;;;;;;;;;;5029641;28;20053;-63
2023/04/17 02:49:40;;;;;;;29.15;19.42;;;;;;;;;;5031814;28;20487;-62
2023/04/17 02:52:06;;;;;;;30.95;19.00;;;;;;;;;;5025072;28;20068;-63
2023/04/17 02:54:31;;;;;;;27.75;19.20;;;;;;;;;;5013439;28;20460;-62
2023/04/17 02:56:57;;;;;;;30.65;20.25;;;;;;;;;;5018414;28;20387;-63
2023/04/17 02:59:25;;;;;;;34.42;20.13;;;;;;;;;;5022743;28;20025;-63
2023/04/17 03:01:50;;;;;;;33.17;19.98;;;;;;;;;;5013310;28;20442;-63
2023/04/17 03:04:15;;;;;;;32.20;19.85;;;;;;;;;;5012838;28;20046;-64
2023/04/17 03:06:41;;;;;;;38.03;20.98;;;;;;;;;;5024756;28;20029;-63
2023/04/17 03:09:06;;;;;;;33.53;20.05;;;;;;;;;;5025254;28;20156;-62
2023/04/17 03:11:32;;;;;;;31.33;19.75;;;;;;;;;;5018905;28;20717;-62
2023/04/17 03:13:57;;;;;;;33.63;20.98;;;;;;;;;;5030039;28;20060;-63
2023/04/17 03:16:22;;;;;;;33.08;21.05;;;;;;;;;;5023199;28;20038;-62
2023/04/17 03:18:48;;;;;;;32.13;20.95;;;;;;;;;;5013333;28;20387;-62
2023/04/17 03:21:13;;;;;;;31.13;19.92;;;;;;;;;;5012253;28;20022;-63
2023/04/17 03:23:40;;;;;;;35.55;20.83;;;;;;;;;;5013780;28;20092;-63
2023/04/17 03:26:05;;;;;;;30.33;19.45;;;;;;;;;;5021543;28;20021;-64
2023/04/17 03:28:31;;;;;;;33.95;21.00;;;;;;;;;;5012235;28;20041;-62
2023/04/17 03:30:58;;;;;;;32.35;19.92;;;;;;;;;;5028664;28;20380;-63
2023/04/17 03:33:24;;;;;;;35.03;21.10;;;;;;;;;;5014074;28;20026;-64
2023/04/17 03:35:49;;;;;;;34.88;20.80;;;;;;;;;;5029651;28;20041;-71
2023/04/17 03:38:15;;;;;;;33.47;21.38;;;;;;;;;;5023208;28;20040;-71
2023/04/17 03:40:40;;;;;;;31.83;20.30;;;;;;;;;;5015584;28;20529;-71
2023/04/17 03:43:06;;;;;;;31.52;20.20;;;;;;;;;;5015758;28;20037;-71
2023/04/17 03:45:31;;;;;;;32.22;19.95;;;;;;;;;;5013615;28;20057;-71
2023/04/17 03:47:57;;;;;;;34.40;21.45;;;;;;;;;;5032833;28;20087;-71
2023/04/17 03:50:22;;;;;;;31.60;20.27;;;;;;;;;;5032252;28;20033;-71
2023/04/17 03:52:47;;;;;;;32.90;20.20;;;;;;;;;;5029879;28;20402;-71
2023/04/17 03:55:13;;;;;;;30.65;19.83;;;;;;;;;;5029908;28;20116;-71
2023/04/17 03:57:38;;;;;;;35.47;21.05;;;;;;;;;;5025627;28;20049;-71
2023/04/17 04:00:09;;;;;;;32.92;20.48;;;;;;;;;;5031681;28;20456;-70
2023/04/17 04:02:35;;;;;;;31.27;20.60;;;;;;;;;;5032604;28;20022;-70
2023/04/17 04:05:00;;;;;;;32.65;19.92;;;;;;;;;;5027892;28;20044;-68
2023/04/17 04:07:26;;;;;;;33.08;20.67;;;;;;;;;;5032099;28;20025;-70
2023/04/17 04:09:51;;;;;;;32.75;21.05;;;;;;;;;;5032422;28;20120;-70
2023/04/17 04:12:16;;;;;;;32.33;20.20;;;;;;;;;;5030166;28;20037;-70
2023/04/17 04:14:42;;;;;;;30.52;19.92;;;;;;;;;;5031252;28;20043;-71
2023/04/17 04:17:07;;;;;;;35.05;20.33;;;;;;;;;;5031250;28;20408;-70
2023/04/17 04:19:33;;;;;;;31.08;19.45;;;;;;;;;;5032412;28;20087;-70
2023/04/17 04:21:58;;;;;;;31.25;19.38;;;;;;;;;;5032335;28;20060;-71
2023/04/17 04:24:24;;;;;;;31.65;20.10;;;;;;;;;;5028642;28;20045;-71
2023/04/17 04:26:49;;;;;;;30.40;19.63;;;;;;;;;;5016909;28;20029;-72
2023/04/17 04:29:15;;;;;;;33.78;20.95;;;;;;;;;;5030736;28;20037;-72
2023/04/17 04:31:41;;;;;;;35.15;20.38;;;;;;;;;;5032308;28;20085;-71
2023/04/17 04:34:08;;;;;;;32.50;20.58;;;;;;;;;;5031411;28;20113;-70
2023/04/17 04:36:40;;;;;;;34.25;21.58;;;;;;;;;;5031918;28;20045;-71
2023/04/17 04:39:06;;;;;;;33.05;20.45;;;;;;;;;;5031279;28;20435;-70
2023/04/17 04:41:35;;;;;;;34.92;20.75;;;;;;;;;;5032073;28;20037;-71
2023/04/17 04:44:00;;;;;;;31.88;19.67;;;;;;;;;;5030738;28;20040;-70
2023/04/17 04:46:27;;;;;;;35.95;22.02;;;;;;;;;;5030813;28;20025;-70
2023/04/17 04:48:52;;;;;;;33.78;20.02;;;;;;;;;;5031932;28;20033;-71
2023/04/17 04:51:18;;;;;;;34.53;22.02;;;;;;;;;;5029729;28;20025;-71
2023/04/17 04:53:44;;;;;;;34.70;21.52;;;;;;;;;;5031890;28;20041;-70
2023/04/17 04:56:09;;;;;;;34.58;21.15;;;;;;;;;;5030693;28;20472;-70
2023/04/17 04:58:35;;;;;;;31.75;20.50;;;;;;;;;;5029854;28;20506;-71
2023/04/17 05:01:00;;;;;;;34.33;21.50;;;;;;;;;;5031619;28;20032;-71
2023/04/17 05:03:25;;;;;;;34.70;21.95;;;;;;;;;;5031051;28;20929;-71
2023/04/17 05:05:51;;;;;;;33.83;20.67;;;;;;;;;;5027701;28;20458;-70
2023/04/17 05:08:16;;;;;;;35.45;21.75;;;;;;;;;;5030617;28;20546;-71
2023/04/17 05:10:42;;;;;;;38.58;22.55;;;;;;;;;;5031819;28;20034;-71
2023/04/17 05:13:07;;;;;;;41.50;22.83;;;;;;;;;;5029572;28;20083;-67
2023/04/17 05:15:32;;;;;;;38.17;22.17;;;;;;;;;;5032744;28;20072;-70
2023/04/17 05:17:58;;;;;;;39.75;23.38;;;;;;;;;;5035652;28;20448;-70
2023/04/17 05:20:25;;;;;;;40.53;23.58;;;;;;;;;;5034141;28;20255;-70
2023/04/17 05:22:50;;;;;;;41.63;24.08;;;;;;;;;;5033598;28;20075;-71
2023/04/17 05:25:16;;;;;;;42.13;24.10;;;;;;;;;;5024187;28;20029;-71
2023/04/17 05:27:41;;;;;;;42.22;24.98;;;;;;;;;;5015663;28;20107;-70
2023/04/17 05:30:07;;;;;;;40.72;24.45;;;;;;;;;;5015328;28;20033;-68
2023/04/17 05:32:34;;;;;;;38.95;23.92;;;;;;;;;;5014781;28;20440;-70
2023/04/17 05:34:59;;;;;;;40.13;24.17;;;;;;;;;;5020211;28;20411;-71
2023/04/17 05:37:25;;;;;;;41.80;24.55;;;;;;;;;;5033073;28;20053;-71
2023/04/17 05:39:51;;;;;;;41.65;24.15;;;;;;;;;;5034167;28;20026;-71
2023/04/17 05:42:16;;;;;;;41.25;24.23;;;;;;;;;;5033444;28;20037;-71
2023/04/17 05:44:42;;;;;;;43.20;25.63;;;;;;;;;;5035331;28;20041;-69
2023/04/17 05:47:07;;;;;;;42.60;24.25;;;;;;;;;;5034717;28;20032;-67
2023/04/17 05:49:33;;;;;;;43.30;24.60;;;;;;;;;;5034843;28;20464;-70
2023/04/17 05:51:58;;;;;;;39.60;24.77;;;;;;;;;;5033935;28;20131;-70
2023/04/17 05:54:24;;;;;;;41.90;24.88;;;;;;;;;;5034301;28;20052;-70
2023/04/17 05:56:49;;;;;;;44.08;23.35;;;;;;;;;;5030293;28;20026;-70
2023/04/17 05:59:15;;;;;;;39.47;24.00;;;;;;;;;;5029762;28;20065;-69
2023/04/17 06:01:42;;;;;;;39.30;23.70;;;;;;;;;;5015318;28;20080;-69
2023/04/17 06:04:07;;;;;;;42.47;24.15;;;;;;;;;;5014842;28;20117;-67
2023/04/17 06:06:32;;;;;;;44.10;24.20;;;;;;;;;;5022849;28;20116;-70
2023/04/17 06:08:58;;;;;;;37.58;23.45;;;;;;;;;;5035015;28;20068;-71
2023/04/17 06:11:23;;;;;;;37.67;24.02;;;;;;;;;;5034298;28;20037;-70
2023/04/17 06:13:50;;;;;;;38.78;23.45;;;;;;;;;;5035112;28;20531;-69
2023/04/17 06:16:16;;;;;;;38.08;24.15;;;;;;;;;;5034343;28;20083;-69
2023/04/17 06:18:41;;;;;;;42.35;25.08;;;;;;;;;;5034537;28;20025;-70
2023/04/17 06:21:07;;;;;;;39.40;24.00;;;;;;;;;;5032576;28;20395;-67
2023/04/17 06:23:32;;;;;;;38.40;23.58;;;;;;;;;;5031790;28;20121;-69
2023/04/17 06:25:58;;;;;;;39.20;24.77;;;;;;;;;;5033017;28;20041;-70
2023/04/17 06:28:23;;;;;;;39.65;24.70;;;;;;;;;;5033475;28;20061;-70
2023/04/17 06:30:49;;;;;;;41.83;24.52;;;;;;;;;;5034464;28;20064;-70
2023/04/17 06:33:14;;;;;;;43.88;25.50;;;;;;;;;;5032365;28;20052;-69
2023/04/17 06:35:40;;;;;;;42.05;25.38;;;;;;;;;;5032891;28;20475;-70
2023/04/17 06:38:05;;;;;;;45.97;27.17;;;;;;;;;;5034334;28;20043;-70
2023/04/17 06:40:31;;;;;;;39.58;24.63;;;;;;;;;;5032383;28;20313;-70
2023/04/17 06:42:57;;;;;;;41.42;24.45;;;;;;;;;;5034389;28;20025;-71
2023/04/17 06:45:22;;;;;;;45.20;24.35;;;;;;;;;;5033222;28;20037;-70
2023/04/17 06:47:48;;;;;;;36.45;23.90;;;;;;;;;;5032612;28;20480;-72
2023/04/17 06:50:14;;;;;;;36.50;23.10;;;;;;;;;;5032911;28;20030;-69
2023/04/17 06:52:39;;;;;;;37.03;24.23;;;;;;;;;;5014218;28;20113;-71
2023/04/17 06:55:05;;;;;;;38.13;23.50;;;;;;;;;;5014549;28;20137;-70
2023/04/17 06:57:32;;;;;;;38.00;23.27;;;;;;;;;;5013503;28;20045;-70
2023/04/17 06:59:58;;;;;;;38.45;24.02;;;;;;;;;;5020058;28;20060;-70
2023/04/17 07:02:23;;;;;;;37.13;24.00;;;;;;;;;;5032258;28;20061;-71
2023/04/17 07:04:49;;;;;;;35.13;23.75;;;;;;;;;;5033878;28;20033;-71
2023/04/17 07:07:14;;;;;;;40.60;24.67;;;;;;;;;;5028892;28;20033;-69
2023/04/17 07:09:41;;;;;;;35.60;22.70;;;;;;;;;;5034008;28;20030;-70
2023/04/17 07:12:07;;;;;;;34.67;22.85;;;;;;;;;;5034102;28;20388;-70
2023/04/17 07:14:34;;;;;;;34.65;23.33;;;;;;;;;;5033979;28;20040;-73
2023/04/17 07:17:00;;;;;;;37.20;23.17;;;;;;;;;;5033999;28;20108;-71
2023/04/17 07:19:25;;;;;;;37.40;23.50;;;;;;;;;;5031280;28;20070;-71
2023/04/17 07:21:51;;;;;;;35.95;23.70;;;;;;;;;;5032968;28;20164;-72
2023/04/17 07:24:16;;;;;;;32.60;22.60;;;;;;;;;;5031225;28;20087;-71
2023/04/17 07:26:42;;;;;;;33.78;22.42;;;;;;;;;;5032380;28;20041;-71
2023/04/17 07:29:08;;;;;;;35.58;22.58;;;;;;;;;;5033675;28;20029;-72
2023/04/17 07:31:33;;;;;;;35.40;23.15;;;;;;;;;;5032861;28;20060;-71
2023/04/17 07:33:59;;;;;;;36.88;23.17;;;;;;;;;;5033797;28;20043;-71
2023/04/17 07:36:26;;;;;;;36.53;22.88;;;;;;;;;;5031522;28;20129;-71
2023/04/17 07:38:51;;;;;;;37.78;22.75;;;;;;;;;;5031287;28;20029;-71
2023/04/17 07:41:17;;;;;;;33.42;22.05;;;;;;;;;;5032422;28;20032;-70
2023/04/17 07:43:42;;;;;;;34.95;23.17;;;;;;;;;;5033080;28;20034;-70
2023/04/17 07:46:07;;;;;;;32.47;21.30;;;;;;;;;;5033223;28;20038;-70
2023/04/17 07:48:33;;;;;;;33.70;23.50;;;;;;;;;;5032060;28;20484;-72
2023/04/17 07:51:00;;;;;;;32.72;22.35;;;;;;;;;;5030781;28;20167;-71
2023/04/17 07:53:27;;;;;;;32.33;22.25;;;;;;;;;;5032738;28;20048;-71
2023/04/17 07:55:53;;;;;;;32.15;21.48;;;;;;;;;;5033369;28;20036;-71
2023/04/17 07:58:19;;;;;;;34.03;21.13;;;;;;;;;;5031966;28;20030;-70
2023/04/17 08:00:44;;;;;;;31.80;21.23;;;;;;;;;;5032012;28;20025;-71
2023/04/17 08:03:12;;;;;;;31.23;21.77;;;;;;;;;;5032967;28;20451;-70
2023/04/17 08:05:39;;;;;;;31.58;21.52;;;;;;;;;;5030683;28;20044;-70
2023/04/17 08:08:04;;;;;;;30.75;21.63;;;;;;;;;;5032751;28;20029;-71
2023/04/17 08:10:30;;;;;;;32.70;20.98;;;;;;;;;;5032024;28;20033;-71
2023/04/17 08:12:56;;;;;;;31.48;21.30;;;;;;;;;;5031611;28;20032;-71
2023/04/17 08:15:21;;;;;;;38.42;22.33;;;;;;;;;;5031812;28;20033;-70
2023/04/17 08:17:48;;;;;;;31.88;21.70;;;;;;;;;;5031189;28;20030;-70
2023/04/17 08:20:16;;;;;;;30.85;20.45;;;;;;;;;;5030209;28;20041;-70
2023/04/17 08:22:44;;;;;;;28.70;20.42;;;;;;;;;;5031912;28;20034;-69
2023/04/17 08:25:11;;;;;;;28.02;19.73;;;;;;;;;;5032164;28;20029;-71
2023/04/17 08:27:39;;;;;;;30.27;18.65;;;;;;;;;;5031557;28;20022;-71
2023/04/17 08:30:05;;;;;;;26.00;18.38;;;;;;;;;;5032332;28;20025;-71
2023/04/17 08:32:42;;;;;;;26.75;18.23;;;;;;;;;;5031271;28;20068;-70
2023/04/17 08:35:10;;;;;;;26.88;17.92;;;;;;;;;;5031261;28;20072;-70
2023/04/17 08:37:36;;;;;;;26.13;18.45;;;;;;;;;;5031552;28;20079;-69
2023/04/17 08:40:05;;;;;;;25.33;16.48;;;;;;;;;;5031920;28;20034;-70
2023/04/17 08:42:34;;;;;;;24.05;15.98;;;;;;;;;;5031111;28;20025;-69
2023/04/17 08:45:03;;;;;;;25.52;16.40;;;;;;;;;;5030413;28;20056;-71
2023/04/17 08:47:29;;;;;;;23.77;16.25;;;;;;;;;;5029987;28;20075;-71
2023/04/17 08:49:56;;;;;;;21.35;15.50;;;;;;;;;;5031694;28;20053;-69
2023/04/17 08:52:22;;;;;;;24.08;15.38;;;;;;;;;;5026515;28;20391;-69
2023/04/17 08:54:47;;;;;;;24.30;14.55;;;;;;;;;;5012362;28;20033;-70
2023/04/17 08:57:13;;;;;;;20.90;14.93;;;;;;;;;;5011189;28;20476;-71
2023/04/17 08:59:41;;;;;;;23.42;15.00;;;;;;;;;;5021534;28;20017;-71
2023/04/17 09:02:07;;;;;;;23.92;14.70;;;;;;;;;;5027824;28;20037;-71
2023/04/17 09:04:50;;;;;;;22.70;14.30;;;;;;;;;;5030941;28;20034;-70
2023/04/17 09:07:16;;;;;;;18.05;13.40;;;;;;;;;;5032193;28;20021;-70
2023/04/17 09:10:00;;;;;;;22.02;12.95;;;;;;;;;;5029638;28;20029;-70
2023/04/17 09:12:25;;;;;;;19.95;12.93;;;;;;;;;;5029972;28;20480;-70
2023/04/17 09:14:54;;;;;;;22.25;14.32;;;;;;;;;;5030879;28;20126;-70
2023/04/17 09:17:20;;;;;;;21.10;13.02;;;;;;;;;;5029791;28;20037;-67
2023/04/17 09:20:06;;;;;;;19.02;13.10;;;;;;;;;;5030545;28;20105;-70
2023/04/17 09:22:33;;;;;;;23.05;13.52;;;;;;;;;;5029718;28;20511;-70
2023/04/17 09:24:59;;;;;;;20.52;13.65;;;;;;;;;;5031650;28;20029;-69
2023/04/17 09:27:28;;;;;;;20.58;13.20;;;;;;;;;;5031056;28;20392;-69
2023/04/17 09:30:04;;;;;;;20.35;13.40;;;;;;;;;;5031052;28;20112;-71
2023/04/17 09:32:32;;;;;;;20.25;12.07;;;;;;;;;;5029524;28;20041;-69
2023/04/17 09:35:02;;;;;;;19.17;12.32;;;;;;;;;;5031862;28;20472;-69
2023/04/17 09:37:49;;;;;;;18.92;12.18;;;;;;;;;;5029161;28;20052;-68
2023/04/17 09:40:15;;;;;;;17.80;11.70;;;;;;;;;;5031475;28;20108;-70
2023/04/17 09:42:55;;;;;;;16.95;11.68;;;;;;;;;;5030841;28;20036;-71
2023/04/17 09:45:23;;;;;;;17.03;11.67;;;;;;;;;;5029114;28;20033;-68
2023/04/17 09:47:50;;;;;;;15.45;10.82;;;;;;;;;;5031486;28;20352;-70
2023/04/17 09:50:17;;;;;;;16.98;11.25;;;;;;;;;;5031054;28;20047;-70
2023/04/17 09:52:43;;;;;;;20.10;11.73;;;;;;;;;;5030313;28;20582;-70
2023/04/17 09:55:10;;;;;;;17.95;11.15;;;;;;;;;;5031213;28;20080;-71
2023/04/17 09:57:39;;;;;;;19.33;12.57;;;;;;;;;;5041532;28;20044;-70
2023/04/17 10:00:09;;;;;;;17.85;12.40;;;;;;;;;;5029820;28;20460;-72
2023/04/17 10:02:35;;;;;;;16.58;11.15;;;;;;;;;;5033054;28;20037;-70
2023/04/17 10:05:03;;;;;;;20.77;11.40;;;;;;;;;;5034856;28;20032;-70
2023/04/17 10:07:28;;;;;;;19.80;11.68;;;;;;;;;;5033904;28;20096;-70
2023/04/17 10:09:54;;;;;;;16.27;11.00;;;;;;;;;;5034732;28;20045;-70
2023/04/17 10:12:20;;;;;;;16.90;11.30;;;;;;;;;;5017053;28;20033;-70
2023/04/17 10:14:50;;;;;;;16.70;11.65;;;;;;;;;;5032968;28;20043;-72
2023/04/17 10:17:30;;;;;;;15.35;11.30;;;;;;;;;;5034548;28;20152;-72
2023/04/17 10:20:19;;;;;;;13.95;10.52;;;;;;;;;;5031921;28;20038;-72
2023/04/17 10:22:54;;;;;;;16.63;10.68;;;;;;;;;;5024431;28;20120;-71
2023/04/17 10:25:28;;;;;;;15.95;10.85;;;;;;;;;;5029737;28;20037;-71
2023/04/17 10:28:00;;;;;;;15.80;10.38;;;;;;;;;;5014762;28;20383;-72
2023/04/17 10:30:51;;;;;;;15.77;10.15;;;;;;;;;;5013832;28;20480;-69
2023/04/17 10:33:18;;;;;;;14.43;9.32;;;;;;;;;;5005770;28;20121;-70
2023/04/17 10:35:44;;;;;;;15.35;10.60;;;;;;;;;;5031498;28;20646;-70
2023/04/17 10:38:10;;;;;;;19.27;10.93;;;;;;;;;;5034448;28;20033;-71
2023/04/17 10:40:37;;;;;;;19.23;9.70;;;;;;;;;;5033454;28;20025;-70
2023/04/17 10:43:13;;;;;;;15.23;9.07;;;;;;;;;;5033457;28;20029;-72
2023/04/17 10:46:11;;;;;;;14.27;9.18;;;;;;;;;;5032037;28;20041;-71
2023/04/17 10:48:49;;;;;;;13.60;8.60;;;;;;;;;;5033264;28;20036;-70
2023/04/17 10:51:20;;;;;;;12.07;8.65;;;;;;;;;;5019136;28;20499;-71
2023/04/17 10:53:48;;;;;;;14.45;8.82;;;;;;;;;;5013418;28;20100;-71
2023/04/17 10:56:37;;;;;;;12.38;8.63;;;;;;;;;;5028974;28;20033;-72
2023/04/17 10:59:05;;;;;;;13.45;8.65;;;;;;;;;;5033956;28;20464;-71
2023/04/17 11:01:37;;;;;;;15.38;8.45;;;;;;;;;;5032904;28;20036;-72
2023/04/17 11:04:06;;;;;;;12.18;8.40;;;;;;;;;;5032188;28;20036;-71
2023/04/17 11:06:35;;;;;;;14.75;8.82;;;;;;;;;;5032298;28;20476;-71
2023/04/17 11:09:02;;;;;;;12.23;8.48;;;;;;;;;;5033735;28;20029;-71
2023/04/17 11:11:28;;;;;;;13.68;8.95;;;;;;;;;;5032930;28;20021;-69
2023/04/17 11:13:53;;;;;;;12.60;8.23;;;;;;;;;;5032246;28;20530;-73
2023/04/17 11:16:20;;;;;;;12.48;7.63;;;;;;;;;;5033513;28;20028;-70
2023/04/17 11:18:47;;;;;;;13.57;7.93;;;;;;;;;;5032249;28;20061;-72
2023/04/17 11:21:14;;;;;;;10.77;7.57;;;;;;;;;;5032576;28;20099;-72
2023/04/17 11:23:40;;;;;;;13.95;8.50;;;;;;;;;;5032648;28;20040;-71
2023/04/17 11:26:08;;;;;;;15.35;8.63;;;;;;;;;;5033414;28;20026;-73
2023/04/17 11:28:35;;;;;;;11.43;7.22;;;;;;;;;;5031223;28;20026;-73
2023/04/17 11:31:00;;;;;;;12.32;7.30;;;;;;;;;;5033109;28;20034;-74
2023/04/17 11:33:27;;;;;;;11.00;6.95;;;;;;;;;;5032918;28;20108;-69
2023/04/17 11:35:53;;;;;;;10.88;7.22;;;;;;;;;;5031014;28;20045;-74
2023/04/17 11:38:20;;;;;;;15.20;7.43;;;;;;;;;;5031891;28;20030;-73
2023/04/17 11:40:51;;;;;;;8.95;6.88;;;;;;;;;;5032172;28;20037;-74
2023/04/17 11:43:18;;;;;;;11.02;7.63;;;;;;;;;;5032846;28;20395;-73
2023/04/17 11:45:45;;;;;;;12.20;7.75;;;;;;;;;;5032134;28;20045;-74
2023/04/17 11:48:13;;;;;;;11.85;7.57;;;;;;;;;;5032761;28;20066;-73
2023/04/17 11:50:41;;;;;;;11.85;7.60;;;;;;;;;;5021176;28;20038;-75
2023/04/17 11:53:06;;;;;;;11.63;7.88;;;;;;;;;;5013133;28;20100;-73
2023/04/17 11:55:33;;;;;;;10.30;7.75;;;;;;;;;;5013676;28;20067;-73
2023/04/17 11:58:06;;;;;;;11.57;7.60;;;;;;;;;;5032905;28;20029;-72
2023/04/17 12:00:32;;;;;;;12.57;7.95;;;;;;;;;;5031692;28;20099;-71
2023/04/17 12:03:00;;;;;;;13.77;8.05;;;;;;;;;;5032342;28;20476;-73
2023/04/17 12:05:27;;;;;;;11.60;8.13;;;;;;;;;;5032448;28;20075;-73
2023/04/17 12:08:03;;;;;;;13.50;8.30;;;;;;;;;;5031856;28;20037;-74
2023/04/17 12:10:39;;;;;;;15.05;9.05;;;;;;;;;;5031251;28;20567;-70
2023/04/17 12:13:05;;;;;;;12.05;8.55;;;;;;;;;;5032635;28;20124;-74
2023/04/17 12:15:31;;;;;;;15.05;8.90;;;;;;;;;;5031896;28;20072;-69
2023/04/17 12:17:56;;;;;;;13.30;8.13;;;;;;;;;;5031140;28;20132;-73
2023/04/17 12:20:21;;;;;;;19.40;10.10;;;;;;;;;;5031960;28;20030;-74
2023/04/17 12:22:47;;;;;;;14.60;8.90;;;;;;;;;;5031327;28;20032;-73
2023/04/17 12:25:12;;;;;;;10.35;8.40;;;;;;;;;;5032064;28;20087;-73
2023/04/17 12:27:38;;;;;;;11.05;8.82;;;;;;;;;;5031794;28;20464;-73
2023/04/17 12:30:04;;;;;;;10.63;8.27;;;;;;;;;;5032200;28;20021;-73
2023/04/17 12:32:29;;;;;;;11.38;8.05;;;;;;;;;;5030799;28;20464;-69
2023/04/17 12:34:55;;;;;;;14.20;7.97;;;;;;;;;;5031549;28;20071;-74
2023/04/17 12:37:20;;;;;;;11.63;8.00;;;;;;;;;;5031992;28;20059;-72
2023/04/17 12:39:46;;;;;;;17.75;8.00;;;;;;;;;;5029709;28;20407;-73
2023/04/17 12:42:11;;;;;;;11.05;7.65;;;;;;;;;;5030528;28;20455;-73
2023/04/17 12:44:37;;;;;;;14.80;7.85;;;;;;;;;;5030665;28;20464;-72
2023/04/17 12:47:02;;;;;;;10.25;8.00;;;;;;;;;;5031035;28;20025;-73
2023/04/17 12:49:28;;;;;;;12.18;7.90;;;;;;;;;;5013193;28;20037;-72
2023/04/17 12:51:53;;;;;;;14.75;8.48;;;;;;;;;;5011105;28;20037;-72
2023/04/17 12:54:19;;;;;;;10.52;7.63;;;;;;;;;;5010830;28;20108;-74
2023/04/17 12:56:44;;;;;;;12.35;7.47;;;;;;;;;;5023981;28;20047;-73
2023/04/17 12:59:10;;;;;;;9.95;7.68;;;;;;;;;;5031646;28;20377;-72
2023/04/17 13:01:35;;;;;;;10.82;7.60;;;;;;;;;;5029780;28;20025;-71
2023/04/17 13:04:01;;;;;;;13.25;7.88;;;;;;;;;;5032121;28;20026;-73
2023/04/17 13:06:27;;;;;;;11.70;7.80;;;;;;;;;;5030549;28;20398;-72
2023/04/17 13:08:52;;;;;;;9.93;7.25;;;;;;;;;;5031099;28;20036;-72
2023/04/17 13:11:18;;;;;;;12.73;7.63;;;;;;;;;;5031727;28;20037;-72
2023/04/17 13:13:43;;;;;;;8.82;7.07;;;;;;;;;;5030625;28;20026;-72
2023/04/17 13:16:09;;;;;;;11.40;7.40;;;;;;;;;;5030577;28;20059;-69
2023/04/17 13:18:34;;;;;;;11.13;7.13;;;;;;;;;;5029852;28;20033;-68
2023/04/17 13:21:00;;;;;;;10.15;7.38;;;;;;;;;;5031160;28;20033;-72
2023/04/17 13:23:25;;;;;;;11.27;8.13;;;;;;;;;;5031527;28;20026;-72
2023/04/17 13:25:51;;;;;;;13.45;7.97;;;;;;;;;;5030364;28;20029;-71
2023/04/17 13:28:16;;;;;;;11.85;7.63;;;;;;;;;;5031340;28;20029;-71
2023/04/17 13:30:41;;;;;;;11.35;7.40;;;;;;;;;;5030345;28;20491;-72
2023/04/17 13:33:07;;;;;;;11.23;7.50;;;;;;;;;;5030410;28;20028;-72
2023/04/17 13:35:32;;;;;;;12.02;7.78;;;;;;;;;;5029743;28;20076;-73
2023/04/17 13:38:01;;;;;;;12.57;8.10;;;;;;;;;;5033858;28;20475;-72
2023/04/17 13:40:26;;;;;;;12.07;7.70;;;;;;;;;;5035173;28;20030;-71
2023/04/17 13:42:52;;;;;;;9.48;7.47;;;;;;;;;;5034409;28;20373;-71
2023/04/17 13:45:17;;;;;;;12.50;7.88;;;;;;;;;;5034019;28;20112;-71
2023/04/17 13:47:43;;;;;;;11.02;7.55;;;;;;;;;;5033304;28;20537;-71
2023/04/17 13:50:09;;;;;;;11.35;7.50;;;;;;;;;;5028603;28;20033;-71
2023/04/17 13:52:34;;;;;;;9.80;7.50;;;;;;;;;;5014069;28;20026;-68
2023/04/17 13:55:00;;;;;;;12.20;8.30;;;;;;;;;;5015801;28;20068;-71
2023/04/17 13:57:25;;;;;;;13.95;7.47;;;;;;;;;;5034820;28;20091;-72
2023/04/17 13:59:51;;;;;;;11.50;7.65;;;;;;;;;;5034182;28;20029;-71
2023/04/17 14:02:16;;;;;;;10.40;7.72;;;;;;;;;;5034808;28;20030;-71
2023/04/17 14:04:42;;;;;;;12.82;7.97;;;;;;;;;;5033735;28;20068;-71
2023/04/17 14:07:07;;;;;;;14.18;7.72;;;;;;;;;;5034727;28;20033;-72
2023/04/17 14:09:33;;;;;;;9.48;7.43;;;;;;;;;;5032256;28;20131;-71
2023/04/17 14:11:58;;;;;;;9.13;7.43;;;;;;;;;;5033451;28;20037;-71
2023/04/17 14:14:24;;;;;;;10.73;7.05;;;;;;;;;;5034557;28;20040;-71
2023/04/17 14:16:49;;;;;;;12.30;7.82;;;;;;;;;;5033591;28;20036;-71
2023/04/17 14:19:15;;;;;;;11.40;7.38;;;;;;;;;;5034290;28;20029;-71